Time;durP1;ratioP1;P1;durP2;ratioP2;P2;SDS_P1;SDS_P2;PMS_P1;PMS_P2;Temp;Humidity;BMP_temperature;BMP_pressure;BME280_temperature;BME280_humidity;BME280_pressure;Samples;Min_cycle;Max_cycle;Signal;HPM_P1;HPM_P2
2023/04/08 00:00:53;;;;;;;41.47;18.20;;;;;;;-146.27;100.00;83895.09;5089434;28;20052;-68
2023/04/08 00:03:19;;;;;;;40.55;19.35;;;;;;;-146.27;100.00;83830.78;5105845;28;20474;-68
2023/04/08 00:05:45;;;;;;;40.00;18.95;;;;;;;-146.27;100.00;83877.00;5097207;28;20106;-68
2023/04/08 00:08:10;;;;;;;37.33;17.77;;;;;;;-146.27;100.00;83862.94;5096376;28;20111;-68
2023/04/08 00:10:35;;;;;;;38.65;17.75;;;;;;;-146.27;100.00;83872.97;5091940;28;20147;-67
2023/04/08 00:13:01;;;;;;;38.00;18.33;;;;;;;-146.27;100.00;83885.03;5083398;28;20021;-68
2023/04/08 00:15:26;;;;;;;39.80;18.88;;;;;;;-146.27;100.00;83907.16;5091923;28;20027;-68
2023/04/08 00:17:53;;;;;;;38.45;19.42;;;;;;;-146.27;100.00;83877.00;5092095;28;20115;-68
2023/04/08 00:20:19;;;;;;;36.80;16.65;;;;;;;-146.27;100.00;83870.97;5095487;28;20024;-68
2023/04/08 00:22:45;;;;;;;44.97;20.50;;;;;;;-146.27;100.00;83875.00;5106229;28;20016;-68
2023/04/08 00:25:11;;;;;;;42.15;18.95;;;;;;;-146.27;100.00;83907.16;5090594;28;20111;-68
2023/04/08 00:27:36;;;;;;;44.83;20.30;;;;;;;-146.27;100.00;83877.00;5089843;28;20035;-68
2023/04/08 00:30:02;;;;;;;49.17;20.55;;;;;;;-146.27;100.00;83887.06;5080097;28;20043;-67
2023/04/08 00:32:28;;;;;;;49.35;20.05;;;;;;;-146.27;100.00;83887.06;5097847;28;20058;-68
2023/04/08 00:34:53;;;;;;;45.28;19.70;;;;;;;-146.27;100.00;83885.03;5080073;28;20023;-68
2023/04/08 00:37:20;;;;;;;47.08;21.00;;;;;;;-146.27;100.00;83895.09;5088263;28;20033;-68
2023/04/08 00:39:45;;;;;;;46.80;20.23;;;;;;;-146.27;100.00;83879.00;5096764;28;20110;-68
2023/04/08 00:42:11;;;;;;;49.75;20.73;;;;;;;-146.27;100.00;83887.06;5091192;28;20103;-68
2023/04/08 00:44:36;;;;;;;56.47;23.00;;;;;;;-146.27;100.00;83943.31;5090484;28;20398;-68
2023/04/08 00:47:03;;;;;;;50.35;22.52;;;;;;;-146.27;100.00;83903.13;5086704;28;20024;-68
2023/04/08 00:49:30;;;;;;;50.35;23.02;;;;;;;-146.27;100.00;83927.25;5089170;28;20059;-68
2023/04/08 00:51:56;;;;;;;55.47;22.20;;;;;;;-146.27;100.00;83919.19;5110161;28;20031;-68
2023/04/08 00:54:21;;;;;;;56.40;23.35;;;;;;;-146.27;100.00;83933.28;5095191;28;20036;-68
2023/04/08 00:56:47;;;;;;;53.88;22.08;;;;;;;-146.27;100.00;83887.06;5089841;28;20043;-68
2023/04/08 00:59:13;;;;;;;58.30;25.35;;;;;;;-146.27;100.00;83883.03;5099127;28;20051;-68
2023/04/08 01:01:44;;;;;;;53.20;23.52;;;;;;;-146.27;100.00;83875.00;5093717;28;20028;-67
2023/04/08 01:04:24;;;;;;;55.22;22.67;;;;;;;-146.27;100.00;83927.25;5083808;28;20020;-67
2023/04/08 01:06:55;;;;;;;55.17;22.23;;;;;;;-146.27;100.00;83858.91;5084379;28;20027;-68
2023/04/08 01:09:24;;;;;;;69.32;25.52;;;;;;;-146.27;100.00;83883.03;5092961;28;20119;-68
2023/04/08 01:11:52;;;;;;;58.53;23.48;;;;;;;-146.27;100.00;83935.28;5097601;28;20498;-68
2023/04/08 01:14:25;;;;;;;60.20;23.38;;;;;;;-146.27;100.00;83899.09;5093860;28;20043;-68
2023/04/08 01:16:52;;;;;;;53.50;23.40;;;;;;;-146.27;100.00;83889.06;5093778;28;20054;-68
2023/04/08 01:19:28;;;;;;;56.85;22.45;;;;;;;-146.27;100.00;83899.09;5086339;28;20039;-68
2023/04/08 01:22:00;;;;;;;50.70;21.20;;;;;;;-146.27;100.00;83909.16;5082091;28;20053;-68
2023/04/08 01:24:29;;;;;;;65.35;23.85;;;;;;;-146.27;100.00;83905.13;5079760;28;20023;-67
2023/04/08 01:26:56;;;;;;;66.10;23.85;;;;;;;-146.27;100.00;83907.16;5089869;28;20024;-68
2023/04/08 01:29:24;;;;;;;59.70;21.65;;;;;;;-146.27;100.00;84009.63;5097372;28;20115;-68
2023/04/08 01:31:50;;;;;;;58.88;24.08;;;;;;;-146.27;100.00;83907.16;5102966;28;20030;-68
2023/04/08 01:34:19;;;;;;;66.63;24.08;;;;;;;-146.27;100.00;83939.31;5081126;28;20024;-68
2023/04/08 01:36:45;;;;;;;70.18;24.98;;;;;;;-146.27;100.00;83883.03;5092268;28;20042;-68
2023/04/08 01:39:14;;;;;;;69.82;26.08;;;;;;;-146.27;100.00;83955.38;5084632;28;20027;-67
2023/04/08 01:41:40;;;;;;;67.93;24.73;;;;;;;-146.27;100.00;83923.22;5092370;28;20098;-67
2023/04/08 01:44:05;;;;;;;62.92;23.67;;;;;;;-146.27;100.00;83895.09;5090363;28;20049;-68
2023/04/08 01:46:32;;;;;;;62.05;24.00;;;;;;;-146.27;100.00;83923.22;5078760;28;20127;-68
2023/04/08 01:48:59;;;;;;;61.67;22.30;;;;;;;-146.27;100.00;83947.34;5090484;28;20387;-68
2023/04/08 01:51:25;;;;;;;60.33;22.17;;;;;;;-146.27;100.00;83911.16;5092761;28;20028;-68
2023/04/08 01:53:51;;;;;;;55.47;23.13;;;;;;;-146.27;100.00;83927.25;5091238;28;20052;-68
2023/04/08 01:56:21;;;;;;;61.00;24.58;;;;;;;-146.27;100.00;83907.16;5088988;28;20128;-68
2023/04/08 01:58:49;;;;;;;63.05;22.80;;;;;;;-146.27;100.00;83935.28;5085981;28;20047;-68
2023/04/08 02:01:18;;;;;;;56.97;22.60;;;;;;;-146.27;100.00;83923.22;5090421;28;20455;-69
2023/04/08 02:03:45;;;;;;;66.88;23.50;;;;;;;-146.27;100.00;83959.41;5096318;28;20432;-68
2023/04/08 02:06:11;;;;;;;58.53;23.70;;;;;;;-146.27;100.00;83949.34;5076624;28;20021;-68
2023/04/08 02:08:36;;;;;;;63.33;23.88;;;;;;;-146.27;100.00;83947.34;5086335;28;20089;-68
2023/04/08 02:11:02;;;;;;;63.63;23.10;;;;;;;-146.27;100.00;83951.34;5093325;28;20044;-68
2023/04/08 02:13:29;;;;;;;66.60;23.75;;;;;;;-146.27;100.00;83947.34;5081665;28;20115;-67
2023/04/08 02:16:03;;;;;;;58.88;23.02;;;;;;;-146.27;100.00;83939.31;5089189;28;20136;-68
2023/04/08 02:18:31;;;;;;;62.50;23.50;;;;;;;-146.27;100.00;83907.16;5084726;28;20035;-68
2023/04/08 02:21:09;;;;;;;58.42;23.83;;;;;;;-146.27;100.00;83933.28;5083230;28;20111;-68
2023/04/08 02:23:37;;;;;;;55.45;22.27;;;;;;;-146.27;100.00;83923.22;5092866;28;20043;-68
2023/04/08 02:26:06;;;;;;;60.67;22.05;;;;;;;-146.27;100.00;83959.41;5091414;28;20035;-68
2023/04/08 02:28:34;;;;;;;70.10;25.85;;;;;;;-146.27;100.00;83999.59;5089356;28;20562;-68
2023/04/08 02:31:02;;;;;;;59.85;22.98;;;;;;;-146.27;100.00;83957.38;5087189;28;20020;-68
2023/04/08 02:33:28;;;;;;;60.97;23.38;;;;;;;-146.27;100.00;83951.34;5095647;28;20104;-68
2023/04/08 02:35:54;;;;;;;69.13;23.83;;;;;;;-146.27;100.00;83969.44;5089043;28;20046;-68
2023/04/08 02:38:20;;;;;;;60.53;23.38;;;;;;;-146.27;100.00;83985.53;5078058;28;20032;-68
2023/04/08 02:40:48;;;;;;;71.25;24.52;;;;;;;-146.27;100.00;83959.41;5090438;28;20024;-68
2023/04/08 02:43:14;;;;;;;63.60;23.17;;;;;;;-146.27;100.00;83965.44;5100240;28;20028;-68
2023/04/08 02:45:43;;;;;;;63.97;22.05;;;;;;;-146.27;100.00;83927.25;5102097;28;20031;-68
2023/04/08 02:48:09;;;;;;;65.22;24.02;;;;;;;-146.27;100.00;83927.25;5089618;28;20020;-68
2023/04/08 02:50:34;;;;;;;64.57;24.00;;;;;;;-146.27;100.00;83923.22;5084769;28;20073;-68
2023/04/08 02:53:00;;;;;;;66.93;25.27;;;;;;;-146.27;100.00;83931.25;5104117;28;20017;-68
2023/04/08 02:55:25;;;;;;;64.95;23.33;;;;;;;-146.27;100.00;83953.38;5096361;28;20024;-68
2023/04/08 02:57:51;;;;;;;77.97;24.58;;;;;;;-146.27;100.00;83965.44;5105198;28;20023;-68
2023/04/08 03:00:16;;;;;;;62.47;22.65;;;;;;;-146.27;100.00;83943.31;5092869;28;20059;-68
2023/04/08 03:02:41;;;;;;;62.88;23.63;;;;;;;-146.27;100.00;83973.47;5105894;28;20379;-68
2023/04/08 03:05:08;;;;;;;60.53;22.00;;;;;;;-146.27;100.00;83995.56;5095333;28;20028;-68
2023/04/08 03:07:34;;;;;;;62.33;23.83;;;;;;;-146.27;100.00;84009.63;5103464;27;20373;-68
2023/04/08 03:09:59;;;;;;;60.90;22.80;;;;;;;-146.27;100.00;84005.63;5106094;27;20040;-68
2023/04/08 03:12:27;;;;;;;60.35;22.40;;;;;;;-146.27;100.00;83973.47;5099563;28;20482;-68
2023/04/08 03:14:53;;;;;;;55.53;21.92;;;;;;;-146.27;100.00;83981.50;5089122;28;20115;-68
2023/04/08 03:17:20;;;;;;;63.10;23.50;;;;;;;-146.27;100.00;84041.78;5084326;28;20051;-68
2023/04/08 03:19:45;;;;;;;63.30;22.70;;;;;;;-146.27;100.00;84013.66;5088175;28;20032;-68
2023/04/08 03:22:10;;;;;;;63.60;22.35;;;;;;;-146.27;100.00;84013.66;5084438;28;20016;-68
2023/04/08 03:24:36;;;;;;;60.78;22.27;;;;;;;-146.27;100.00;83951.34;5101791;28;20039;-68
2023/04/08 03:27:02;;;;;;;64.15;23.25;;;;;;;-146.27;100.00;83991.56;5100538;28;20054;-68
2023/04/08 03:29:27;;;;;;;67.07;23.30;;;;;;;-146.27;100.00;84027.72;5088670;28;20034;-67
2023/04/08 03:31:53;;;;;;;62.15;23.05;;;;;;;-146.27;100.00;84019.69;5086728;28;20020;-68
2023/04/08 03:34:18;;;;;;;64.97;23.98;;;;;;;-146.27;100.00;84003.59;5088784;28;20474;-68
2023/04/08 03:36:44;;;;;;;65.18;23.40;;;;;;;-146.27;100.00;84033.75;5088057;28;20111;-67
2023/04/08 03:39:09;;;;;;;68.93;24.70;;;;;;;-146.27;100.00;83999.59;5085401;28;20046;-67
2023/04/08 03:41:35;;;;;;;66.05;23.90;;;;;;;-146.27;100.00;83997.56;5095896;28;20077;-68
2023/04/08 03:44:00;;;;;;;79.80;25.20;;;;;;;-146.27;100.00;83993.56;5095026;28;20023;-67
2023/04/08 03:46:26;;;;;;;76.13;25.88;;;;;;;-146.27;100.00;84015.66;5087593;28;20111;-67
2023/04/08 03:48:51;;;;;;;81.57;26.00;;;;;;;-146.27;100.00;84027.72;5087625;28;20055;-67
2023/04/08 03:51:16;;;;;;;87.55;27.52;;;;;;;-146.27;100.00;84017.69;5090942;28;20024;-67
2023/04/08 03:53:42;;;;;;;100.68;28.02;;;;;;;-146.27;100.00;84003.59;5098906;28;20043;-67
2023/04/08 03:56:07;;;;;;;80.43;27.13;;;;;;;-146.27;100.00;84031.75;5090742;28;20020;-67
2023/04/08 03:58:32;;;;;;;79.28;26.42;;;;;;;-146.27;100.00;84051.84;5089076;28;20475;-67
2023/04/08 04:00:58;;;;;;;97.28;27.83;;;;;;;-146.27;100.00;84071.94;5090270;28;20028;-67
2023/04/08 04:03:23;;;;;;;85.93;26.48;;;;;;;-146.27;100.00;84071.94;5091260;28;20027;-67
2023/04/08 04:05:49;;;;;;;96.20;26.83;;;;;;;-146.27;100.00;84079.97;5094954;28;20027;-67
2023/04/08 04:08:15;;;;;;;81.25;25.77;;;;;;;-146.27;100.00;84023.69;5101328;28;20034;-67
2023/04/08 04:10:40;;;;;;;160.55;27.17;;;;;;;-146.27;100.00;84079.97;5090242;28;20052;-68
2023/04/08 04:13:05;;;;;;;73.07;25.08;;;;;;;-146.27;100.00;84067.91;5087641;28;20780;-68
2023/04/08 04:15:31;;;;;;;97.70;27.33;;;;;;;-146.27;100.00;84071.94;5092748;28;20111;-67
2023/04/08 04:17:56;;;;;;;90.30;25.80;;;;;;;-146.27;100.00;84047.81;5086690;28;20395;-67
2023/04/08 04:20:21;;;;;;;140.43;28.10;;;;;;;-146.27;100.00;84027.72;5088187;28;21263;-67
2023/04/08 04:22:47;;;;;;;130.43;25.38;;;;;;;-146.27;100.00;84019.69;5088102;28;20422;-67
2023/04/08 04:25:12;;;;;;;126.32;23.15;;;;;;;-146.27;100.00;84100.06;5096533;28;20076;-68
2023/04/08 04:27:37;;;;;;;219.68;25.30;;;;;;;-146.27;100.00;84059.88;5093323;28;20043;-68
2023/04/08 04:30:03;;;;;;;74.45;23.52;;;;;;;-146.27;100.00;84067.91;5087346;28;20165;-67
2023/04/08 04:32:29;;;;;;;64.38;22.85;;;;;;;-146.27;100.00;84053.84;5093925;28;20037;-68
2023/04/08 04:34:54;;;;;;;78.18;21.92;;;;;;;-146.27;100.00;84065.91;5107827;28;20038;-68
2023/04/08 04:37:20;;;;;;;130.25;25.27;;;;;;;-146.27;100.00;84108.09;5095745;28;20024;-68
2023/04/08 04:39:46;;;;;;;73.07;21.75;;;;;;;-146.27;100.00;84092.03;5088970;28;20044;-68
2023/04/08 04:42:11;;;;;;;86.78;23.13;;;;;;;-146.27;100.00;84104.09;5094441;28;20107;-67
2023/04/08 04:44:36;;;;;;;179.10;23.23;;;;;;;-146.27;100.00;84116.16;5094930;28;20187;-67
2023/04/08 04:47:02;;;;;;;360.80;29.13;;;;;;;-146.27;100.00;84092.03;5089932;28;20488;-67
2023/04/08 04:49:27;;;;;;;69.63;23.30;;;;;;;-146.27;100.00;84088.00;5093496;28;20019;-67
2023/04/08 04:51:52;;;;;;;134.57;24.55;;;;;;;-146.27;100.00;84120.16;5085291;28;20028;-67
2023/04/08 04:54:18;;;;;;;457.95;31.05;;;;;;;-146.27;100.00;84174.44;5096142;28;20031;-67
2023/04/08 04:56:43;;;;;;;318.42;30.48;;;;;;;-146.27;100.00;84128.22;5086642;28;20058;-68
2023/04/08 04:59:09;;;;;;;122.72;23.60;;;;;;;-146.27;100.00;84136.25;5089794;28;20019;-68
2023/04/08 05:01:34;;;;;;;65.80;21.92;;;;;;;-146.27;100.00;84116.16;5087908;28;20875;-68
2023/04/08 05:04:00;;;;;;;167.18;26.65;;;;;;;-146.27;100.00;84136.25;5077315;28;20040;-68
2023/04/08 05:06:26;;;;;;;186.68;26.85;;;;;;;-146.27;100.00;84116.16;5085988;28;20056;-68
2023/04/08 05:08:52;;;;;;;447.63;34.30;;;;;;;-146.27;100.00;84106.09;5092355;28;20028;-68
2023/04/08 05:11:17;;;;;;;143.15;27.30;;;;;;;-146.27;100.00;84118.16;5086122;28;20095;-68
2023/04/08 05:13:43;;;;;;;98.82;25.42;;;;;;;-146.27;100.00;84130.22;5085661;28;20020;-67
2023/04/08 05:16:09;;;;;;;374.75;31.92;;;;;;;-146.27;100.00;84140.25;5103122;28;20096;-69
2023/04/08 05:18:35;;;;;;;204.88;28.88;;;;;;;-146.27;100.00;84142.28;5077464;28;20112;-67
2023/04/08 05:21:00;;;;;;;392.08;32.83;;;;;;;-146.27;100.00;84154.34;5084082;28;20058;-67
2023/04/08 05:23:26;;;;;;;414.73;32.45;;;;;;;-146.27;100.00;84140.25;5083497;28;20046;-68
2023/04/08 05:25:51;;;;;;;426.05;30.85;;;;;;;-146.27;100.00;84132.22;5093249;28;20103;-68
2023/04/08 05:28:16;;;;;;;398.38;33.17;;;;;;;-146.27;100.00;84164.38;5090495;28;20039;-68
2023/04/08 05:30:42;;;;;;;108.65;26.23;;;;;;;-146.27;100.00;84192.50;5094603;28;20073;-68
2023/04/08 05:33:07;;;;;;;376.95;33.38;;;;;;;-146.27;100.00;84144.28;5084368;28;20447;-68
2023/04/08 05:35:32;;;;;;;377.05;32.15;;;;;;;-146.27;100.00;84220.66;5098739;28;20020;-68
2023/04/08 05:37:58;;;;;;;286.08;33.53;;;;;;;-146.27;100.00;84192.50;5080544;28;20048;-68
2023/04/08 05:40:23;;;;;;;183.27;29.25;;;;;;;-146.27;100.00;84130.22;5088458;28;20036;-68
2023/04/08 05:42:48;;;;;;;288.98;27.92;;;;;;;-146.27;100.00;84158.34;5086438;28;20021;-68
2023/04/08 05:45:15;;;;;;;373.70;33.72;;;;;;;-146.27;100.00;84168.41;5079460;28;20034;-68
2023/04/08 05:47:40;;;;;;;301.42;32.60;;;;;;;-146.27;100.00;84158.34;5083718;28;20034;-68
2023/04/08 05:50:06;;;;;;;125.70;31.02;;;;;;;-146.27;100.00;84140.25;5093497;28;20103;-68
2023/04/08 05:52:31;;;;;;;153.70;34.30;;;;;;;-146.27;100.00;84128.22;5085905;28;20044;-68
2023/04/08 05:54:57;;;;;;;253.23;35.35;;;;;;;-146.27;100.00;84164.38;5089696;28;20036;-68
2023/04/08 05:57:22;;;;;;;147.95;33.30;;;;;;;-146.27;100.00;84120.16;5090586;28;20038;-68
2023/04/08 05:59:47;;;;;;;209.20;33.83;;;;;;;-146.27;100.00;84132.22;5073028;28;20032;-68
2023/04/08 06:02:13;;;;;;;254.52;35.33;;;;;;;-146.27;100.00;84134.22;5077391;28;20478;-68
2023/04/08 06:04:38;;;;;;;129.10;32.17;;;;;;;-146.27;100.00;84084.00;5073209;28;20062;-68
2023/04/08 06:07:04;;;;;;;124.50;32.50;;;;;;;-146.27;100.00;84104.09;5085958;28;20061;-68
2023/04/08 06:09:33;;;;;;;131.18;35.75;;;;;;;-146.27;100.00;84090.03;5077005;28;20480;-68
2023/04/08 06:11:59;;;;;;;114.43;34.67;;;;;;;-146.27;100.00;84124.19;5078660;28;20024;-68
2023/04/08 06:14:24;;;;;;;132.20;35.38;;;;;;;-146.27;100.00;84061.88;5082306;28;20345;-69
2023/04/08 06:16:51;;;;;;;116.30;33.88;;;;;;;-146.27;100.00;84077.97;5075260;28;20024;-68
2023/04/08 06:19:17;;;;;;;106.65;32.88;;;;;;;-146.27;100.00;84079.97;5089421;28;20060;-69
2023/04/08 06:21:42;;;;;;;100.35;31.83;;;;;;;-146.27;100.00;84055.84;5086884;28;20062;-69
2023/04/08 06:24:07;;;;;;;102.35;32.10;;;;;;;-146.27;100.00;84086.00;5090263;28;20031;-69
2023/04/08 06:26:33;;;;;;;97.85;30.90;;;;;;;-146.27;100.00;84069.94;5089030;28;20036;-68
2023/04/08 06:28:59;;;;;;;98.13;30.17;;;;;;;-146.27;100.00;84051.84;5080314;28;20359;-68
2023/04/08 06:31:24;;;;;;;89.53;28.67;;;;;;;-146.27;100.00;84067.91;5093375;28;20111;-68
2023/04/08 06:33:51;;;;;;;91.30;28.90;;;;;;;-146.27;100.00;84055.84;5087825;28;20032;-68
2023/04/08 06:36:16;;;;;;;88.07;28.60;;;;;;;-146.27;100.00;83989.53;5076669;28;20029;-69
2023/04/08 06:38:41;;;;;;;86.28;26.92;;;;;;;-146.27;100.00;84031.75;5084354;28;20713;-68
2023/04/08 06:41:07;;;;;;;82.38;28.75;;;;;;;-146.27;100.00;83961.41;5093754;28;20082;-69
2023/04/08 06:43:36;;;;;;;81.25;27.38;;;;;;;-146.27;100.00;84011.66;5084923;28;20091;-68
2023/04/08 06:46:02;;;;;;;77.75;27.98;;;;;;;-146.27;100.00;83987.53;5085498;28;20024;-68
2023/04/08 06:48:29;;;;;;;73.03;23.92;;;;;;;-146.27;100.00;83975.47;5084288;28;20072;-68
2023/04/08 06:50:59;;;;;;;72.38;24.42;;;;;;;-146.27;100.00;84019.69;5097689;28;20015;-67
2023/04/08 06:53:25;;;;;;;63.42;23.52;;;;;;;-146.27;100.00;83975.47;5100380;28;20115;-70
2023/04/08 06:55:50;;;;;;;62.78;23.42;;;;;;;-146.27;100.00;83967.44;5098313;28;20023;-72
2023/04/08 06:58:16;;;;;;;121.78;23.15;;;;;;;-146.27;100.00;84013.66;5093353;28;20107;-71
2023/04/08 07:00:42;;;;;;;136.38;22.77;;;;;;;-146.27;100.00;84098.06;5082051;28;20059;-72
2023/04/08 07:03:08;;;;;;;217.25;24.67;;;;;;;-146.27;100.00;84005.63;5085277;28;20463;-70
2023/04/08 07:05:37;;;;;;;64.20;22.00;;;;;;;-146.27;100.00;83963.41;5094226;28;20049;-68
2023/04/08 07:08:03;;;;;;;78.63;22.13;;;;;;;-146.27;100.00;83977.47;5087451;28;20158;-71
2023/04/08 07:10:28;;;;;;;140.27;20.10;;;;;;;-146.27;100.00;83969.44;5079962;28;20136;-72
2023/04/08 07:12:54;;;;;;;152.05;21.63;;;;;;;-146.27;100.00;84003.59;5086009;28;20036;-71
2023/04/08 07:15:19;;;;;;;222.32;22.73;;;;;;;-146.27;100.00;84106.09;5099897;28;20154;-72
2023/04/08 07:17:45;;;;;;;69.80;16.88;;;;;;;-146.27;100.00;84025.72;5096536;28;20020;-72
2023/04/08 07:20:12;;;;;;;80.63;16.75;;;;;;;-146.27;100.00;84007.63;5076322;28;20027;-72
2023/04/08 07:22:38;;;;;;;119.30;17.50;;;;;;;-146.27;100.00;84015.66;5082576;28;20070;-68
2023/04/08 07:25:04;;;;;;;143.70;18.50;;;;;;;-146.27;100.00;84065.91;5092213;28;20434;-68
2023/04/08 07:27:29;;;;;;;121.40;17.40;;;;;;;-146.27;100.00;84035.75;5098857;28;20071;-68
2023/04/08 07:29:55;;;;;;;45.95;17.92;;;;;;;-146.27;100.00;84031.75;5089697;28;20028;-68
2023/04/08 07:32:20;;;;;;;123.68;16.75;;;;;;;-146.27;100.00;83991.56;5082489;28;20110;-68
2023/04/08 07:34:46;;;;;;;116.13;19.55;;;;;;;-146.27;100.00;84051.84;5075609;28;20054;-68
2023/04/08 07:37:11;;;;;;;132.30;18.23;;;;;;;-146.27;100.00;84035.75;5085575;28;20028;-68
2023/04/08 07:39:36;;;;;;;58.83;15.95;;;;;;;-146.27;100.00;83987.53;5090620;28;20030;-68
2023/04/08 07:42:02;;;;;;;37.28;16.88;;;;;;;-146.27;100.00;84031.75;5078781;28;20380;-68
2023/04/08 07:44:27;;;;;;;95.18;17.65;;;;;;;-146.27;100.00;84007.63;5077810;28;20420;-68
2023/04/08 07:46:53;;;;;;;46.50;16.95;;;;;;;-146.27;100.00;84027.72;5080998;28;20025;-68
2023/04/08 07:49:18;;;;;;;108.80;18.30;;;;;;;-146.27;100.00;84081.97;5083624;28;20025;-67
2023/04/08 07:51:43;;;;;;;47.15;18.13;;;;;;;-146.27;100.00;84047.81;5086178;28;20032;-67
2023/04/08 07:54:16;;;;;;;50.05;16.75;;;;;;;-146.27;100.00;84053.84;5082452;28;20051;-67
2023/04/08 07:56:43;;;;;;;88.28;18.30;;;;;;;-146.27;100.00;84084.00;5082890;28;20024;-67
2023/04/08 07:59:11;;;;;;;48.17;17.67;;;;;;;-146.27;100.00;84029.72;5084576;28;20023;-70
2023/04/08 08:01:37;;;;;;;38.75;18.15;;;;;;;-146.27;100.00;84011.66;5083473;28;20032;-68
2023/04/08 08:04:02;;;;;;;38.83;17.63;;;;;;;-146.27;100.00;84047.81;5085532;28;20027;-68
2023/04/08 08:06:28;;;;;;;61.22;17.90;;;;;;;-146.27;100.00;84079.97;5081009;28;20110;-68
2023/04/08 08:08:54;;;;;;;48.13;18.25;;;;;;;-146.27;100.00;84035.75;5080543;28;20032;-69
2023/04/08 08:11:21;;;;;;;72.22;18.55;;;;;;;-146.27;100.00;84075.94;5086428;28;20505;-69
2023/04/08 08:13:46;;;;;;;35.17;20.33;;;;;;;-146.27;100.00;84075.94;5087854;28;20020;-69
2023/04/08 08:16:12;;;;;;;69.43;18.35;;;;;;;-146.27;100.00;84069.94;5091109;28;20544;-69
2023/04/08 08:18:38;;;;;;;37.13;18.48;;;;;;;-146.27;100.00;84047.81;5083083;28;20028;-69
2023/04/08 08:21:04;;;;;;;30.98;17.73;;;;;;;-146.27;100.00;84140.25;5082353;28;20024;-69
2023/04/08 08:23:30;;;;;;;34.92;19.35;;;;;;;-146.27;100.00;84021.69;5088392;28;20035;-68
2023/04/08 08:26:09;;;;;;;37.67;21.45;;;;;;;-146.27;100.00;83965.44;5086048;28;20024;-69
2023/04/08 08:28:34;;;;;;;47.15;18.85;;;;;;;-146.27;100.00;84019.69;5087415;28;20020;-68
2023/04/08 08:31:01;;;;;;;38.20;19.45;;;;;;;-146.27;100.00;84021.69;5077532;28;20486;-68
2023/04/08 08:33:26;;;;;;;31.65;18.88;;;;;;;-146.27;100.00;83979.50;5085533;28;20053;-68
2023/04/08 08:35:52;;;;;;;31.33;19.13;;;;;;;-146.27;100.00;83959.41;5091110;28;20364;-68
2023/04/08 08:38:17;;;;;;;33.20;20.35;;;;;;;-146.27;100.00;83927.25;5088073;28;20054;-68
2023/04/08 08:40:44;;;;;;;35.65;20.27;;;;;;;-146.27;100.00;83949.34;5092793;28;20024;-69
2023/04/08 08:43:09;;;;;;;31.23;20.35;;;;;;;-146.27;100.00;83957.38;5092997;28;20020;-69
2023/04/08 08:45:39;;;;;;;30.35;19.70;;;;;;;-146.27;100.00;83967.44;5099800;28;20090;-69
2023/04/08 08:48:07;;;;;;;38.88;19.75;;;;;;;-146.27;100.00;83941.31;5085062;28;20031;-69
2023/04/08 08:50:32;;;;;;;35.13;21.40;;;;;;;-146.27;100.00;83951.34;5094746;28;20042;-69
2023/04/08 08:52:58;;;;;;;35.50;22.20;;;;;;;-146.27;100.00;83899.09;5105269;28;20024;-69
2023/04/08 08:55:23;;;;;;;39.78;23.52;;;;;;;-146.27;100.00;83903.13;5088752;28;20174;-68
2023/04/08 08:57:51;;;;;;;45.00;25.75;;;;;;;-146.27;100.00;83858.91;5096712;28;20028;-69
2023/04/08 09:00:17;;;;;;;39.55;24.88;;;;;;;-146.27;100.00;83776.53;5091519;28;20032;-67
2023/04/08 09:02:42;;;;;;;40.75;26.30;;;;;;;-146.27;100.00;83822.75;5096732;28;20018;-68
2023/04/08 09:05:08;;;;;;;37.53;24.65;;;;;;;-146.27;100.00;83794.63;5088309;28;20062;-68
2023/04/08 09:07:41;;;;;;;38.60;24.65;;;;;;;-146.27;100.00;83838.81;5112847;27;20124;-69
2023/04/08 09:10:07;;;;;;;37.03;23.77;;;;;;;-146.27;100.00;83770.50;5103981;28;20441;-71
2023/04/08 09:12:32;;;;;;;37.35;26.00;;;;;;;-146.27;100.00;83730.31;5104421;28;20042;-71
2023/04/08 09:15:04;;;;;;;37.90;23.80;;;;;;;-146.27;100.00;83617.78;5108273;28;20464;-70
2023/04/08 09:17:40;;;;;;;39.30;24.50;;;;;;;-146.27;100.00;83641.91;5109508;28;20031;-71
2023/04/08 09:20:11;;;;;;;31.30;20.48;;;;;;;-146.27;100.00;83674.03;5108767;28;20129;-71
2023/04/08 09:22:55;;;;;;;30.13;20.58;;;;;;;-146.27;100.00;83607.72;5109370;28;20069;-71
2023/04/08 09:25:24;;;;;;;30.98;21.05;;;;;;;-146.27;100.00;83561.53;5109222;28;20028;-71
2023/04/08 09:27:50;;;;;;;30.50;20.42;;;;;;;-146.27;100.00;83507.25;5106578;28;20039;-70
2023/04/08 09:30:16;;;;;;;29.80;20.35;;;;;;;-146.27;100.00;83503.25;5109242;28;20478;-70
2023/04/08 09:32:53;;;;;;;22.55;17.40;;;;;;;-146.27;100.00;83499.22;5109038;28;20051;-77
2023/04/08 09:35:20;;;;;;;28.45;19.23;;;;;;;-146.27;100.00;83432.91;5106186;28;20040;-70
2023/04/08 09:37:45;;;;;;;24.67;17.67;;;;;;;-146.27;100.00;83461.06;5105548;28;20032;-70
2023/04/08 09:40:12;;;;;;;25.00;16.65;;;;;;;-146.27;100.00;83503.25;5108644;28;20355;-70
2023/04/08 09:42:39;;;;;;;24.40;18.38;;;;;;;-146.27;100.00;83465.06;5102429;28;20028;-70
2023/04/08 09:45:06;;;;;;;21.67;16.30;;;;;;;-146.27;100.00;83503.25;5108889;28;20057;-72
2023/04/08 09:47:41;;;;;;;30.83;18.15;;;;;;;-146.27;100.00;83392.72;5107720;28;20027;-70
2023/04/08 09:50:08;;;;;;;24.92;17.38;;;;;;;-146.27;100.00;83372.63;5094792;28;20055;-70
2023/04/08 09:52:41;;;;;;;29.10;16.75;;;;;;;-146.27;100.00;83372.63;5108481;28;20028;-71
2023/04/08 09:55:13;;;;;;;22.20;16.40;;;;;;;-146.27;100.00;83324.41;5107746;28;20480;-70
2023/04/08 09:57:54;;;;;;;19.17;15.30;;;;;;;-146.27;100.00;83290.25;5107118;28;20024;-71
2023/04/08 10:00:23;;;;;;;23.85;17.55;;;;;;;-146.27;100.00;83215.91;5102318;28;20032;-70
2023/04/08 10:02:55;;;;;;;20.58;16.35;;;;;;;-146.27;99.85;83207.88;5092160;28;20028;-70
2023/04/08 10:05:21;;;;;;;24.30;17.33;;;;;;;-146.27;98.42;83199.84;5095356;28;20034;-70
2023/04/08 10:07:47;;;;;;;20.35;14.27;;;;;;;-146.27;93.53;83147.59;5108513;28;20046;-70
2023/04/08 10:10:13;;;;;;;20.65;15.40;;;;;;;-146.27;95.89;83123.50;5107111;28;20032;-70
2023/04/08 10:12:39;;;;;;;20.63;15.27;;;;;;;-146.27;95.04;83147.59;5102474;28;20108;-70
2023/04/08 10:15:27;;;;;;;22.15;14.73;;;;;;;-146.27;92.52;83063.22;5102746;28;20134;-70
2023/04/08 10:17:54;;;;;;;20.63;16.13;;;;;;;-146.27;96.46;83004.94;5096471;28;20028;-71
2023/04/08 10:20:34;;;;;;;21.10;14.52;;;;;;;-146.27;91.50;83031.06;5093193;28;20031;-72
2023/04/08 10:23:00;;;;;;;16.90;12.70;;;;;;;-146.27;90.88;82906.50;5077391;28;20438;-73
2023/04/08 10:25:34;;;;;;;19.08;13.88;;;;;;;-146.27;87.94;82940.66;5092307;28;20024;-75
2023/04/08 10:28:02;;;;;;;21.30;14.07;;;;;;;-146.27;88.35;82878.38;5096702;28;20028;-73
2023/04/08 10:30:27;;;;;;;17.35;13.32;;;;;;;-146.27;85.95;82828.16;5094841;28;20016;-74
2023/04/08 10:32:58;;;;;;;16.58;12.88;;;;;;;-146.27;83.46;82775.91;5091953;28;20032;-74
2023/04/08 10:35:31;;;;;;;18.00;13.30;;;;;;;-146.27;80.99;82842.22;5087595;28;20043;-73
2023/04/08 10:37:58;;;;;;;17.98;12.73;;;;;;;-146.27;83.87;82802.03;5091570;28;20027;-74
2023/04/08 10:40:23;;;;;;;16.52;12.32;;;;;;;-146.27;75.18;82697.56;5090704;28;20380;-75
2023/04/08 10:42:55;;;;;;;18.73;14.35;;;;;;;-146.27;79.52;82665.44;5088194;28;20024;-75
2023/04/08 10:45:21;;;;;;;16.08;12.00;;;;;;;-146.27;76.48;82601.16;5088792;28;20379;-75
2023/04/08 10:47:47;;;;;;;19.08;13.32;;;;;;;-146.27;74.75;82488.66;5082262;28;20035;-74
2023/04/08 10:50:17;;;;;;;14.20;11.93;;;;;;;-146.27;72.84;82522.78;5088678;28;20084;-74